Time;durP1;ratioP1;P1;durP2;ratioP2;P2;SDS_P1;SDS_P2;PMS_P1;PMS_P2;Temp;Humidity;BMP_temperature;BMP_pressure;BME280_temperature;BME280_humidity;BME280_pressure;Samples;Min_cycle;Max_cycle;Signal;HPM_P1;HPM_P2
2023/06/28 00:01:05;;;;;;;8.07;3.37;;;15.10;82.20;;;;;;5006825;28;20285;-68
2023/06/28 00:03:31;;;;;;;6.63;3.83;;;15.10;82.30;;;;;;4989463;28;20273;-68
2023/06/28 00:05:56;;;;;;;8.83;3.43;;;15.00;82.10;;;;;;5008085;28;20038;-68
2023/06/28 00:08:22;;;;;;;8.97;3.77;;;15.00;82.40;;;;;;4992495;28;20038;-68
2023/06/28 00:10:49;;;;;;;9.17;3.77;;;15.00;82.50;;;;;;5008048;28;20042;-68
2023/06/28 00:13:15;;;;;;;9.00;4.03;;;15.00;82.60;;;;;;5005008;28;20175;-68
2023/06/28 00:15:41;;;;;;;10.67;4.10;;;15.00;83.10;;;;;;5008770;28;20368;-68
2023/06/28 00:18:07;;;;;;;9.63;4.20;;;15.00;83.40;;;;;;4992632;28;20046;-68
2023/06/28 00:20:34;;;;;;;8.20;4.17;;;15.00;83.70;;;;;;5007236;28;20081;-68
2023/06/28 00:23:00;;;;;;;11.73;4.80;;;15.00;83.60;;;;;;4991702;28;20717;-68
2023/06/28 00:25:26;;;;;;;11.00;3.80;;;15.00;83.80;;;;;;5007746;28;20327;-68
2023/06/28 00:27:52;;;;;;;11.47;4.47;;;15.00;84.30;;;;;;5008040;28;20097;-68
2023/06/28 00:30:17;;;;;;;8.77;4.00;;;15.00;84.30;;;;;;5006654;28;20305;-68
2023/06/28 00:32:43;;;;;;;8.10;4.50;;;15.00;84.30;;;;;;5022819;28;20113;-67
2023/06/28 00:35:09;;;;;;;12.53;5.00;;;15.00;84.90;;;;;;5004759;28;20053;-67
2023/06/28 00:37:34;;;;;;;11.10;4.40;;;15.00;84.50;;;;;;5008083;28;20124;-67
2023/06/28 00:40:01;;;;;;;10.70;4.73;;;15.00;84.50;;;;;;5006375;28;20293;-67
2023/06/28 00:42:26;;;;;;;9.60;4.63;;;15.00;84.60;;;;;;5007934;28;20041;-67
2023/06/28 00:44:52;;;;;;;7.13;4.30;;;15.00;85.00;;;;;;5007841;28;20300;-67
2023/06/28 00:47:18;;;;;;;10.60;4.37;;;15.00;84.70;;;;;;5004538;28;20038;-67
2023/06/28 00:49:45;;;;;;;10.03;3.80;;;15.00;85.00;;;;;;5006663;28;20485;-67
2023/06/28 00:52:12;;;;;;;9.57;4.03;;;15.00;84.90;;;;;;5004391;28;20292;-67
2023/06/28 00:54:39;;;;;;;9.30;4.27;;;15.00;84.90;;;;;;5003845;28;20291;-67
2023/06/28 00:57:05;;;;;;;7.87;3.97;;;15.00;85.10;;;;;;5005808;28;20281;-67
2023/06/28 00:59:31;;;;;;;7.30;3.83;;;15.00;84.80;;;;;;5005916;28;20308;-67
2023/06/28 01:01:57;;;;;;;9.37;4.40;;;15.00;85.10;;;;;;4980672;28;20834;-67
2023/06/28 01:04:23;;;;;;;7.17;3.70;;;15.00;85.20;;;;;;5004095;28;20065;-67
2023/06/28 01:06:54;;;;;;;10.40;4.47;;;15.00;85.10;;;;;;5005806;28;20461;-67
2023/06/28 01:09:26;;;;;;;8.67;3.83;;;15.10;85.10;;;;;;4989234;28;20042;-68
2023/06/28 01:11:54;;;;;;;7.53;4.10;;;15.10;85.20;;;;;;4985384;28;20300;-68
2023/06/28 01:14:22;;;;;;;8.63;2.97;;;15.10;85.30;;;;;;5006744;28;20363;-68
2023/06/28 01:16:55;;;;;;;5.63;2.60;;;15.10;85.70;;;;;;4995063;28;20351;-69
2023/06/28 01:19:26;;;;;;;6.27;2.40;;;15.10;85.40;;;;;;4997598;28;20304;-68
2023/06/28 01:21:56;;;;;;;5.67;2.50;;;15.10;85.30;;;;;;5000645;28;20280;-68
2023/06/28 01:24:22;;;;;;;3.23;1.30;;;15.10;85.20;;;;;;5005099;28;20644;-68
2023/06/28 01:26:53;;;;;;;5.73;2.00;;;15.00;85.20;;;;;;5004450;28;20335;-69
2023/06/28 01:29:23;;;;;;;5.83;1.43;;;15.00;85.30;;;;;;4989386;28;20287;-68
2023/06/28 01:31:51;;;;;;;2.87;1.40;;;15.00;85.40;;;;;;5003752;28;20281;-68
2023/06/28 01:34:17;;;;;;;3.53;1.30;;;15.00;85.90;;;;;;5005884;28;20284;-68
2023/06/28 01:36:43;;;;;;;7.03;1.43;;;15.00;85.80;;;;;;5005093;28;20359;-68
2023/06/28 01:39:09;;;;;;;5.50;1.30;;;15.00;85.90;;;;;;5002800;28;20899;-68
2023/06/28 01:41:35;;;;;;;4.10;1.40;;;15.00;85.90;;;;;;4984385;28;20312;-68
2023/06/28 01:44:01;;;;;;;5.07;1.70;;;15.10;86.60;;;;;;5005157;28;20375;-68
2023/06/28 01:46:27;;;;;;;6.70;1.83;;;15.00;87.10;;;;;;4983879;28;20379;-68
2023/06/28 01:48:53;;;;;;;7.03;1.70;;;15.00;87.70;;;;;;5005099;28;20049;-68
2023/06/28 01:51:19;;;;;;;4.37;1.63;;;15.00;88.30;;;;;;5001366;28;20312;-68
2023/06/28 01:53:45;;;;;;;4.13;1.50;;;15.00;88.10;;;;;;5006752;28;20417;-68
2023/06/28 01:56:11;;;;;;;2.80;1.10;;;15.00;87.90;;;;;;5006264;28;20128;-68
2023/06/28 01:58:37;;;;;;;5.90;1.57;;;14.90;88.10;;;;;;5006795;28;20372;-69
2023/06/28 02:01:03;;;;;;;4.20;1.83;;;14.90;88.00;;;;;;4987270;28;20041;-68
2023/06/28 02:03:28;;;;;;;2.67;1.40;;;14.90;87.80;;;;;;5007205;28;20077;-68
2023/06/28 02:05:54;;;;;;;4.80;1.33;;;14.80;88.40;;;;;;5003396;28;20046;-69
2023/06/28 02:08:21;;;;;;;4.67;1.80;;;14.80;88.50;;;;;;5006802;28;20115;-69
2023/06/28 02:10:46;;;;;;;6.67;1.77;;;14.80;88.60;;;;;;5006667;28;20050;-69
2023/06/28 02:13:12;;;;;;;5.10;2.03;;;14.70;88.80;;;;;;5002918;28;20871;-68
2023/06/28 02:15:38;;;;;;;6.23;1.50;;;14.70;89.50;;;;;;5004882;28;20073;-68
2023/06/28 02:18:05;;;;;;;4.77;1.60;;;14.70;89.20;;;;;;5000546;28;20068;-68
2023/06/28 02:20:30;;;;;;;3.63;1.80;;;14.70;89.50;;;;;;4991479;28;20099;-68
2023/06/28 02:22:56;;;;;;;2.70;1.50;;;14.70;89.30;;;;;;5010160;28;20281;-68
2023/06/28 02:25:22;;;;;;;4.83;1.40;;;14.70;89.50;;;;;;5009798;28;20121;-68
2023/06/28 02:27:48;;;;;;;3.80;1.70;;;14.70;89.20;;;;;;4991192;28;20428;-68
2023/06/28 02:30:13;;;;;;;4.07;1.17;;;14.70;89.30;;;;;;4988968;28;20540;-68
2023/06/28 02:32:39;;;;;;;2.77;1.33;;;14.70;89.30;;;;;;4993844;28;20524;-68
2023/06/28 02:35:05;;;;;;;5.17;1.63;;;14.70;89.40;;;;;;5004667;28;20502;-68
2023/06/28 02:37:31;;;;;;;5.43;1.20;;;14.60;89.60;;;;;;5002898;28;20130;-68
2023/06/28 02:39:57;;;;;;;4.67;1.47;;;14.70;89.70;;;;;;5000614;28;20883;-68
2023/06/28 02:42:23;;;;;;;6.07;1.50;;;14.70;89.50;;;;;;5010058;28;20029;-68
2023/06/28 02:44:48;;;;;;;3.33;1.27;;;14.70;89.70;;;;;;5009208;28;20038;-68
2023/06/28 02:47:14;;;;;;;4.43;1.43;;;14.70;89.50;;;;;;5009722;28;20088;-68
2023/06/28 02:49:40;;;;;;;5.10;1.37;;;14.70;89.10;;;;;;4993176;28;20125;-68
2023/06/28 02:52:06;;;;;;;6.43;1.77;;;14.70;89.30;;;;;;5009083;28;20042;-68
2023/06/28 02:54:31;;;;;;;4.67;1.20;;;14.70;89.20;;;;;;4992961;28;20427;-68
2023/06/28 02:56:57;;;;;;;3.03;1.40;;;14.70;89.20;;;;;;5009526;28;20639;-68
2023/06/28 02:59:23;;;;;;;3.90;1.67;;;14.70;89.70;;;;;;5008875;28;20520;-69
2023/06/28 03:01:48;;;;;;;4.87;1.33;;;14.80;89.50;;;;;;5007111;28;20426;-69
2023/06/28 03:04:14;;;;;;;4.83;1.47;;;14.80;90.00;;;;;;5003617;28;20070;-68
2023/06/28 03:06:41;;;;;;;3.23;1.47;;;14.80;89.80;;;;;;4990748;28;20045;-68
2023/06/28 03:09:07;;;;;;;3.67;1.40;;;14.90;89.30;;;;;;5009132;28;20123;-68
2023/06/28 03:11:32;;;;;;;4.27;1.47;;;14.90;89.80;;;;;;5009534;28;20320;-68
2023/06/28 03:14:01;;;;;;;6.70;1.60;;;15.00;90.40;;;;;;5008734;28;20796;-68
2023/06/28 03:16:27;;;;;;;3.27;1.53;;;15.00;90.60;;;;;;4993896;28;20101;-68
2023/06/28 03:18:52;;;;;;;3.77;1.90;;;15.00;90.60;;;;;;4993016;28;20277;-68
2023/06/28 03:21:18;;;;;;;5.63;2.03;;;15.00;90.00;;;;;;5009014;28;20125;-68
2023/06/28 03:23:44;;;;;;;4.90;1.70;;;15.00;89.70;;;;;;4989978;28;20615;-68
2023/06/28 03:26:10;;;;;;;4.73;2.00;;;15.10;90.20;;;;;;5008201;28;20065;-68
2023/06/28 03:28:35;;;;;;;6.73;1.90;;;15.10;90.10;;;;;;4992503;28;20285;-68
2023/06/28 03:31:01;;;;;;;5.67;1.80;;;15.10;90.40;;;;;;5005828;28;20129;-68
2023/06/28 03:33:27;;;;;;;4.43;1.90;;;15.10;90.50;;;;;;5004840;28;20662;-68
2023/06/28 03:35:53;;;;;;;6.37;1.93;;;15.10;90.10;;;;;;5006328;28;20038;-68
2023/06/28 03:38:18;;;;;;;4.23;1.93;;;15.10;89.70;;;;;;5004173;28;20200;-68
2023/06/28 03:40:44;;;;;;;6.17;2.30;;;15.10;89.70;;;;;;4983358;28;20037;-68
2023/06/28 03:43:10;;;;;;;10.53;3.00;;;15.20;89.40;;;;;;4984991;28;20084;-69
2023/06/28 03:45:36;;;;;;;6.87;2.40;;;15.20;89.80;;;;;;5006411;28;20037;-68
2023/06/28 03:48:02;;;;;;;6.40;2.40;;;15.20;89.60;;;;;;5006366;28;20068;-68
2023/06/28 03:50:28;;;;;;;7.43;2.07;;;15.20;89.60;;;;;;4989828;28;20784;-68
2023/06/28 03:52:53;;;;;;;6.67;2.40;;;15.20;89.50;;;;;;4990464;28;20284;-68
2023/06/28 03:55:19;;;;;;;5.13;2.43;;;15.30;89.50;;;;;;4991128;28;20416;-68
2023/06/28 03:57:45;;;;;;;7.10;2.07;;;15.30;89.30;;;;;;4990195;28;20053;-68
2023/06/28 04:00:12;;;;;;;5.60;2.47;;;15.30;89.40;;;;;;5004711;28;20840;-68
2023/06/28 04:02:39;;;;;;;5.77;2.30;;;15.40;89.30;;;;;;4988343;28;20412;-68
2023/06/28 04:05:05;;;;;;;9.93;2.60;;;15.40;89.20;;;;;;5006613;28;20280;-68
2023/06/28 04:07:31;;;;;;;7.10;2.33;;;15.40;88.80;;;;;;4990933;28;21009;-68
2023/06/28 04:09:57;;;;;;;5.63;2.57;;;15.40;89.30;;;;;;5004622;28;20284;-68
2023/06/28 04:12:22;;;;;;;6.83;2.70;;;15.50;88.80;;;;;;5005037;28;20134;-69
2023/06/28 04:14:49;;;;;;;6.87;2.73;;;15.50;88.60;;;;;;5007886;28;20489;-68
2023/06/28 04:17:15;;;;;;;9.53;3.03;;;15.50;89.10;;;;;;5005215;28;20046;-68
2023/06/28 04:19:41;;;;;;;7.87;2.90;;;15.50;89.50;;;;;;5006067;28;20311;-68
2023/06/28 04:22:06;;;;;;;7.63;3.00;;;15.50;89.30;;;;;;5005864;28;20038;-68
2023/06/28 04:24:32;;;;;;;8.83;3.20;;;15.50;89.50;;;;;;5005894;28;20038;-68
2023/06/28 04:27:00;;;;;;;7.80;2.97;;;15.50;89.70;;;;;;4989451;28;20437;-68
2023/06/28 04:29:29;;;;;;;6.90;3.30;;;15.60;90.00;;;;;;5006166;28;20041;-68
2023/06/28 04:32:01;;;;;;;9.90;3.73;;;15.60;90.50;;;;;;5004525;28;20672;-68
2023/06/28 04:34:27;;;;;;;10.30;4.33;;;15.50;90.90;;;;;;4990607;28;20793;-68
2023/06/28 04:36:52;;;;;;;9.07;3.60;;;15.50;91.10;;;;;;4989953;28;20395;-68
2023/06/28 04:39:18;;;;;;;8.23;4.27;;;15.50;91.30;;;;;;5007477;28;20449;-68
2023/06/28 04:41:45;;;;;;;9.30;4.40;;;15.50;91.90;;;;;;5008018;28;20092;-69
2023/06/28 04:44:14;;;;;;;7.80;4.57;;;15.50;92.20;;;;;;4990810;28;20465;-69
2023/06/28 04:46:44;;;;;;;10.33;4.87;;;15.50;92.90;;;;;;4986359;28;20285;-69
2023/06/28 04:49:10;;;;;;;12.77;4.93;;;15.50;92.90;;;;;;4991161;28;20285;-69
2023/06/28 04:51:36;;;;;;;12.77;4.37;;;15.50;92.90;;;;;;4987810;28;20328;-69
2023/06/28 04:54:02;;;;;;;9.03;4.30;;;15.50;93.80;;;;;;5007412;28;20744;-69
2023/06/28 04:56:28;;;;;;;12.07;4.10;;;15.50;93.30;;;;;;4990898;28;20049;-70
2023/06/28 04:58:54;;;;;;;8.17;4.27;;;15.50;93.80;;;;;;5006202;28;20064;-69
2023/06/28 05:01:19;;;;;;;8.60;4.33;;;15.50;93.50;;;;;;5006554;28;20458;-68
2023/06/28 05:03:47;;;;;;;9.67;4.30;;;15.50;94.20;;;;;;5007228;28;20520;-68
2023/06/28 05:06:13;;;;;;;8.93;4.10;;;15.50;94.20;;;;;;5007026;28;20116;-70
2023/06/28 05:08:39;;;;;;;9.83;3.97;;;15.50;93.90;;;;;;5005859;28;20712;-70
2023/06/28 05:11:05;;;;;;;12.20;4.37;;;15.50;94.10;;;;;;4988921;28;20292;-70
2023/06/28 05:13:30;;;;;;;12.67;4.40;;;15.50;94.60;;;;;;5008336;28;20120;-70
2023/06/28 05:15:56;;;;;;;11.43;4.07;;;15.50;94.80;;;;;;4985167;28;20297;-70
2023/06/28 05:18:22;;;;;;;8.90;5.03;;;15.60;94.80;;;;;;4992629;28;20088;-70
2023/06/28 05:20:48;;;;;;;9.90;4.50;;;15.60;94.90;;;;;;4990576;28;20301;-70
2023/06/28 05:23:16;;;;;;;8.37;4.63;;;15.60;95.80;;;;;;5005275;28;20584;-70
2023/06/28 05:25:43;;;;;;;10.40;4.67;;;15.60;95.70;;;;;;5003994;28;20049;-70
2023/06/28 05:28:11;;;;;;;8.47;4.37;;;15.60;95.50;;;;;;5004663;28;20620;-70
2023/06/28 05:30:37;;;;;;;10.47;4.40;;;15.60;95.20;;;;;;5005483;28;20318;-70
2023/06/28 05:33:02;;;;;;;10.20;4.30;;;15.60;95.20;;;;;;5004855;28;20284;-70
2023/06/28 05:35:31;;;;;;;13.37;4.53;;;15.60;95.10;;;;;;4988795;28;20043;-70
2023/06/28 05:37:57;;;;;;;8.73;4.20;;;15.60;95.20;;;;;;5003208;28;20065;-70
2023/06/28 05:40:22;;;;;;;9.00;4.27;;;15.60;95.10;;;;;;5004431;28;20812;-69
2023/06/28 05:42:48;;;;;;;8.77;4.37;;;15.60;95.30;;;;;;5007039;28;20073;-69
2023/06/28 05:45:14;;;;;;;8.13;4.57;;;15.50;95.30;;;;;;5006909;28;20528;-69
2023/06/28 05:47:39;;;;;;;11.60;5.17;;;15.50;95.10;;;;;;5005064;28;20042;-69
2023/06/28 05:50:06;;;;;;;10.17;4.90;;;15.40;95.50;;;;;;4999310;28;20045;-69
2023/06/28 05:52:31;;;;;;;10.30;4.70;;;15.40;95.60;;;;;;5007074;28;20259;-69
2023/06/28 05:54:57;;;;;;;9.10;5.37;;;15.40;95.60;;;;;;5009202;28;20863;-69
2023/06/28 05:57:23;;;;;;;7.97;4.73;;;15.50;96.10;;;;;;4994698;28;20116;-69
2023/06/28 05:59:48;;;;;;;9.03;5.17;;;15.50;96.30;;;;;;5009211;28;20034;-68
2023/06/28 06:02:14;;;;;;;10.70;5.00;;;15.50;96.20;;;;;;4994102;28;20092;-69
2023/06/28 06:04:40;;;;;;;12.43;5.40;;;15.60;96.30;;;;;;5010553;28;20037;-69
2023/06/28 06:07:06;;;;;;;12.33;5.13;;;15.60;96.50;;;;;;4994153;28;20042;-69
2023/06/28 06:09:34;;;;;;;10.33;5.03;;;15.60;96.10;;;;;;5010880;28;20508;-69
2023/06/28 06:12:00;;;;;;;10.47;5.43;;;15.60;96.30;;;;;;5010977;28;20049;-69
2023/06/28 06:14:26;;;;;;;9.20;4.97;;;15.60;96.10;;;;;;4997237;28;20295;-69
2023/06/28 06:16:54;;;;;;;13.57;4.93;;;15.70;96.00;;;;;;5005746;28;20037;-69
2023/06/28 06:19:19;;;;;;;9.77;5.07;;;15.70;95.80;;;;;;5010247;28;20061;-69
2023/06/28 06:21:45;;;;;;;9.53;5.10;;;15.70;95.60;;;;;;4994089;28;20303;-69
2023/06/28 06:24:11;;;;;;;10.27;5.10;;;15.80;95.60;;;;;;5007406;28;20044;-69
2023/06/28 06:26:37;;;;;;;12.23;5.20;;;15.80;95.60;;;;;;4990871;28;20060;-69
2023/06/28 06:29:03;;;;;;;12.73;4.93;;;15.90;95.80;;;;;;5010509;28;20084;-69
2023/06/28 06:31:29;;;;;;;9.67;4.90;;;15.90;95.90;;;;;;4993056;28;20045;-69
2023/06/28 06:34:01;;;;;;;11.10;5.13;;;16.00;95.70;;;;;;5010704;28;20376;-69
2023/06/28 06:36:29;;;;;;;12.30;4.67;;;16.00;95.50;;;;;;4992156;28;20339;-69
2023/06/28 06:38:59;;;;;;;11.50;4.90;;;16.10;95.70;;;;;;5005297;28;20300;-69
2023/06/28 06:41:25;;;;;;;9.40;5.60;;;16.20;95.60;;;;;;5004731;28;20658;-69
2023/06/28 06:43:52;;;;;;;11.00;4.83;;;16.20;95.70;;;;;;5011715;28;20324;-69
2023/06/28 06:46:20;;;;;;;9.30;4.60;;;16.30;95.50;;;;;;5011347;28;20293;-69
2023/06/28 06:48:47;;;;;;;8.90;4.83;;;16.30;95.40;;;;;;5010554;28;20038;-68
2023/06/28 06:51:14;;;;;;;12.03;5.10;;;16.40;94.90;;;;;;5011033;28;20448;-69
2023/06/28 06:53:39;;;;;;;9.60;4.57;;;16.40;94.90;;;;;;5011726;28;20320;-69
2023/06/28 06:56:05;;;;;;;12.00;5.43;;;16.40;94.70;;;;;;5011551;28;20826;-69
2023/06/28 06:58:31;;;;;;;9.27;4.70;;;16.40;94.60;;;;;;5011544;28;20115;-70
2023/06/28 07:00:57;;;;;;;8.87;4.80;;;16.40;94.50;;;;;;5010260;28;20045;-70
2023/06/28 07:03:22;;;;;;;10.70;4.93;;;16.40;94.20;;;;;;5011175;28;20519;-69
2023/06/28 07:05:48;;;;;;;12.57;5.00;;;16.40;93.90;;;;;;5010289;28;20037;-69
2023/06/28 07:08:14;;;;;;;13.33;5.10;;;16.30;93.90;;;;;;5011841;28;20038;-69
2023/06/28 07:10:39;;;;;;;9.53;4.57;;;16.30;94.30;;;;;;4995219;28;20056;-69
2023/06/28 07:13:05;;;;;;;12.90;5.40;;;16.30;94.20;;;;;;5011692;28;20072;-69
2023/06/28 07:15:31;;;;;;;8.80;4.67;;;16.20;94.20;;;;;;5011278;28;20065;-69
2023/06/28 07:17:56;;;;;;;8.50;4.90;;;16.20;94.50;;;;;;5006095;28;20396;-69
2023/06/28 07:20:22;;;;;;;10.43;5.40;;;16.20;94.40;;;;;;5010066;28;20065;-69
2023/06/28 07:22:48;;;;;;;9.87;5.37;;;16.20;94.20;;;;;;5010556;28;20042;-69
2023/06/28 07:25:14;;;;;;;11.10;5.43;;;16.20;94.30;;;;;;4993598;28;20430;-69
2023/06/28 07:27:40;;;;;;;8.43;4.73;;;16.20;94.20;;;;;;5006079;28;20529;-68
2023/06/28 07:30:07;;;;;;;12.17;5.57;;;16.20;94.20;;;;;;4994378;28;20280;-69
2023/06/28 07:32:34;;;;;;;10.10;5.60;;;16.20;94.20;;;;;;4992157;28;20077;-69
2023/06/28 07:35:00;;;;;;;11.63;5.30;;;16.20;94.30;;;;;;5011747;28;20277;-69
2023/06/28 07:37:26;;;;;;;10.93;5.53;;;16.20;94.10;;;;;;5010043;28;20288;-69
2023/06/28 07:39:52;;;;;;;12.70;5.70;;;16.20;94.40;;;;;;5007928;28;20045;-69
2023/06/28 07:42:21;;;;;;;12.67;5.80;;;16.20;94.40;;;;;;4988813;28;20689;-69
2023/06/28 07:44:47;;;;;;;11.37;5.97;;;16.20;94.80;;;;;;5010000;28;20291;-69
2023/06/28 07:47:13;;;;;;;10.27;6.00;;;16.10;94.70;;;;;;5007399;28;20277;-69
2023/06/28 07:49:38;;;;;;;10.07;6.10;;;16.10;94.60;;;;;;5007817;28;20112;-69
2023/06/28 07:52:05;;;;;;;13.00;5.70;;;16.10;95.00;;;;;;5009858;28;20112;-69
2023/06/28 07:54:31;;;;;;;12.83;6.17;;;16.10;95.20;;;;;;5010894;28;20441;-69
2023/06/28 07:56:57;;;;;;;11.90;6.37;;;16.10;95.20;;;;;;4994115;28;20420;-69
2023/06/28 07:59:22;;;;;;;13.37;6.73;;;16.20;95.40;;;;;;5008158;28;20042;-69
2023/06/28 08:01:49;;;;;;;11.30;6.57;;;16.20;95.40;;;;;;5010351;28;20034;-69
2023/06/28 08:04:20;;;;;;;10.57;7.00;;;16.30;95.70;;;;;;4993429;28;20406;-69
2023/06/28 08:06:46;;;;;;;15.37;7.30;;;16.30;95.70;;;;;;5009268;28;20331;-69
2023/06/28 08:09:13;;;;;;;14.23;7.20;;;16.30;96.10;;;;;;4992115;28;20631;-69
2023/06/28 08:11:39;;;;;;;13.63;8.10;;;16.30;96.00;;;;;;5008409;28;20280;-69
2023/06/28 08:14:05;;;;;;;13.80;8.80;;;16.30;96.10;;;;;;5008109;28;20289;-69
2023/06/28 08:16:31;;;;;;;11.77;8.40;;;16.40;95.90;;;;;;4993474;28;20287;-69
2023/06/28 08:18:57;;;;;;;13.27;8.33;;;16.40;96.00;;;;;;4991513;28;20284;-69
2023/06/28 08:21:23;;;;;;;15.80;8.50;;;16.40;96.60;;;;;;5005045;28;20277;-68
2023/06/28 08:23:48;;;;;;;16.67;9.20;;;16.50;96.40;;;;;;4992041;28;20084;-68
2023/06/28 08:26:14;;;;;;;12.60;8.43;;;16.50;96.80;;;;;;5007885;28;20469;-68
2023/06/28 08:28:41;;;;;;;14.37;9.37;;;16.60;96.40;;;;;;4991332;28;20347;-68
2023/06/28 08:31:07;;;;;;;11.93;8.90;;;16.60;96.20;;;;;;4991859;28;20048;-68
2023/06/28 08:33:32;;;;;;;16.20;9.03;;;16.70;96.80;;;;;;5007522;28;20376;-68
2023/06/28 08:35:58;;;;;;;14.97;8.40;;;16.70;96.60;;;;;;5007667;28;20388;-68
2023/06/28 08:38:24;;;;;;;12.67;8.73;;;16.70;96.90;;;;;;5005617;28;20128;-68
2023/06/28 08:40:51;;;;;;;18.63;9.00;;;16.80;97.40;;;;;;4985006;28;20144;-68
2023/06/28 08:43:19;;;;;;;14.37;8.80;;;16.90;97.30;;;;;;5004936;28;20042;-68
2023/06/28 08:45:45;;;;;;;12.83;9.03;;;16.90;97.00;;;;;;5004175;28;20286;-68
2023/06/28 08:48:14;;;;;;;14.50;9.17;;;16.90;97.00;;;;;;5008042;28;20845;-68
2023/06/28 08:50:43;;;;;;;14.57;9.07;;;16.90;96.70;;;;;;5008137;28;20293;-69
2023/06/28 08:53:13;;;;;;;13.27;9.07;;;16.90;97.10;;;;;;5008015;28;20285;-68
2023/06/28 08:55:41;;;;;;;14.43;9.93;;;17.00;97.20;;;;;;5007072;28;20419;-68
2023/06/28 08:58:10;;;;;;;15.07;9.13;;;17.10;97.30;;;;;;4990338;28;20292;-69
2023/06/28 09:00:35;;;;;;;14.30;8.97;;;17.10;97.10;;;;;;5007563;28;20822;-69
2023/06/28 09:03:01;;;;;;;13.20;9.83;;;17.20;96.90;;;;;;4991305;28;20281;-68
2023/06/28 09:05:27;;;;;;;13.80;9.33;;;17.20;96.90;;;;;;5006019;28;20046;-68
2023/06/28 09:07:55;;;;;;;14.40;9.63;;;17.20;96.70;;;;;;5006308;28;20029;-68
2023/06/28 09:10:21;;;;;;;11.93;9.47;;;17.20;97.10;;;;;;5007481;28;20096;-68
2023/06/28 09:12:48;;;;;;;13.20;8.83;;;17.20;96.90;;;;;;5004658;28;20289;-68
2023/06/28 09:15:17;;;;;;;11.90;9.20;;;17.20;96.80;;;;;;5013538;28;20464;-68
2023/06/28 09:17:42;;;;;;;12.60;9.93;;;17.20;97.30;;;;;;4983344;28;20324;-68
2023/06/28 09:20:19;;;;;;;12.73;9.50;;;17.30;97.30;;;;;;5004848;28;20398;-68
2023/06/28 09:22:59;;;;;;;12.50;9.77;;;17.30;96.90;;;;;;4990963;28;20132;-68
2023/06/28 09:25:27;;;;;;;12.40;10.37;;;17.30;96.80;;;;;;5006326;28;20300;-68
2023/06/28 09:27:55;;;;;;;13.43;9.70;;;17.30;96.90;;;;;;5007647;28;20843;-68
2023/06/28 09:30:21;;;;;;;14.50;10.80;;;17.30;96.90;;;;;;4986046;28;20277;-68
2023/06/28 09:32:51;;;;;;;14.90;10.53;;;17.30;97.40;;;;;;4990970;28;20288;-68
2023/06/28 09:35:18;;;;;;;16.20;11.07;;;17.40;98.50;;;;;;5001305;28;20806;-68
2023/06/28 09:37:54;;;;;;;15.43;10.87;;;17.60;98.20;;;;;;5001553;28;20281;-68
2023/06/28 09:40:20;;;;;;;13.73;11.23;;;17.70;97.80;;;;;;4984234;28;20858;-68
2023/06/28 09:42:48;;;;;;;13.83;11.43;;;17.80;97.40;;;;;;5007122;28;20277;-69
2023/06/28 09:45:27;;;;;;;15.50;10.93;;;17.80;97.00;;;;;;4999142;28;20375;-68
2023/06/28 09:48:00;;;;;;;13.83;11.60;;;17.80;97.10;;;;;;5004713;28;20416;-68
2023/06/28 09:50:38;;;;;;;12.73;10.53;;;17.90;97.10;;;;;;5007416;28;20367;-68
2023/06/28 09:53:09;;;;;;;15.23;11.63;;;18.00;97.60;;;;;;4990916;28;20768;-68
2023/06/28 09:55:38;;;;;;;15.20;11.27;;;18.20;97.10;;;;;;5007379;28;20846;-68
2023/06/28 09:58:07;;;;;;;13.47;11.57;;;18.30;96.80;;;;;;5004881;28;20798;-68
2023/06/28 10:00:33;;;;;;;15.90;11.33;;;18.40;96.30;;;;;;5007371;28;20634;-68
2023/06/28 10:03:08;;;;;;;15.53;11.90;;;18.40;96.00;;;;;;5006930;28;20288;-68
2023/06/28 10:05:36;;;;;;;14.82;10.70;;;18.50;95.90;;;;;;5006965;28;20273;-68
2023/06/28 10:08:07;;;;;;;15.17;11.03;;;18.60;95.50;;;;;;4990666;28;20065;-68
2023/06/28 10:10:37;;;;;;;17.03;12.43;;;18.60;95.20;;;;;;4987973;28;20685;-68
2023/06/28 10:13:18;;;;;;;17.57;12.13;;;18.50;94.90;;;;;;5007161;28;20296;-68
2023/06/28 10:15:51;;;;;;;15.73;11.70;;;18.50;94.80;;;;;;5006298;28;20278;-69
2023/06/28 10:18:17;;;;;;;14.70;11.93;;;18.50;94.80;;;;;;4985540;28;20285;-68
2023/06/28 10:20:43;;;;;;;16.30;13.00;;;18.40;94.90;;;;;;5006831;28;20331;-68
2023/06/28 10:23:12;;;;;;;15.53;12.10;;;18.40;95.00;;;;;;5003328;28;20636;-68
2023/06/28 10:25:44;;;;;;;15.80;12.83;;;18.30;95.40;;;;;;4990236;28;20293;-68
2023/06/28 10:28:12;;;;;;;17.13;12.90;;;18.30;95.60;;;;;;5004262;28;20305;-68
2023/06/28 10:30:42;;;;;;;16.83;12.77;;;18.30;95.60;;;;;;4989138;28;20297;-68
2023/06/28 10:33:09;;;;;;;13.80;12.10;;;18.30;95.60;;;;;;5002253;28;20288;-68
2023/06/28 10:35:36;;;;;;;18.37;12.13;;;18.40;95.60;;;;;;4999061;28;20645;-68
2023/06/28 10:38:03;;;;;;;17.50;12.80;;;18.40;95.70;;;;;;4983943;28;20712;-68
2023/06/28 10:40:29;;;;;;;17.90;13.33;;;18.40;95.70;;;;;;5007308;28;20468;-68
2023/06/28 10:42:55;;;;;;;16.37;13.20;;;18.50;96.00;;;;;;5009870;28;20289;-68
2023/06/28 10:45:37;;;;;;;14.60;12.43;;;18.60;95.90;;;;;;5005918;28;20046;-68
2023/06/28 10:48:04;;;;;;;19.13;13.37;;;18.60;95.80;;;;;;5007337;28;20034;-68
2023/06/28 10:50:40;;;;;;;19.63;14.13;;;18.70;95.90;;;;;;5010091;28;20176;-68
2023/06/28 10:53:06;;;;;;;17.80;13.43;;;18.70;95.70;;;;;;4994199;28;20125;-68
2023/06/28 10:55:34;;;;;;;19.63;14.23;;;18.70;95.10;;;;;;5006275;28;20185;-68
2023/06/28 10:58:11;;;;;;;20.80;14.63;;;18.60;94.90;;;;;;4993500;28;20050;-68
2023/06/28 11:00:39;;;;;;;17.10;14.93;;;18.50;95.50;;;;;;5009567;28;20528;-68
2023/06/28 11:03:05;;;;;;;20.20;14.97;;;18.40;95.20;;;;;;5009768;28;20042;-68
2023/06/28 11:05:59;;;;;;;22.73;16.57;;;18.40;95.20;;;;;;4993423;28;20046;-68
2023/06/28 11:09:09;;;;;;;25.97;17.30;;;18.30;95.80;;;;;;4993173;28;20088;-67
2023/06/28 11:11:35;;;;;;;23.37;17.77;;;18.20;95.20;;;;;;4984905;28;20116;-68
2023/06/28 11:14:19;;;;;;;25.30;17.80;;;18.20;96.00;;;;;;4989780;28;20074;-68
2023/06/28 11:16:48;;;;;;;26.27;18.47;;;18.10;96.40;;;;;;4997111;28;20371;-68
2023/06/28 11:19:15;;;;;;;26.10;19.10;;;18.10;96.30;;;;;;5009281;28;20292;-68
2023/06/28 11:21:41;;;;;;;27.03;18.97;;;18.20;96.30;;;;;;4986500;28;20277;-68
2023/06/28 11:24:07;;;;;;;26.73;19.63;;;18.20;96.80;;;;;;4993382;28;20033;-68
2023/06/28 11:26:36;;;;;;;29.37;20.63;;;18.20;96.90;;;;;;4990564;28;20050;-68
2023/06/28 11:29:18;;;;;;;25.57;19.53;;;18.20;96.70;;;;;;4993335;28;20377;-68
2023/06/28 11:31:52;;;;;;;27.23;20.07;;;18.20;96.80;;;;;;5006143;28;20088;-68
2023/06/28 11:34:19;;;;;;;28.20;20.57;;;18.20;96.90;;;;;;4990492;28;20042;-68
2023/06/28 11:36:46;;;;;;;29.23;21.30;;;18.20;97.20;;;;;;4989136;28;20398;-68
2023/06/28 11:39:21;;;;;;;37.77;23.57;;;18.30;97.00;;;;;;4999900;28;20348;-68
2023/06/28 11:41:47;;;;;;;33.77;23.40;;;18.30;97.30;;;;;;5007220;28;20281;-68
2023/06/28 11:44:14;;;;;;;32.20;21.60;;;18.50;97.50;;;;;;5008453;28;20315;-68
2023/06/28 11:46:41;;;;;;;32.00;23.30;;;18.60;97.60;;;;;;5008911;28;20276;-68
2023/06/28 11:49:08;;;;;;;38.87;24.43;;;18.70;97.50;;;;;;5005415;28;20296;-69
2023/06/28 11:51:35;;;;;;;28.63;22.80;;;18.80;97.00;;;;;;5005310;28;20045;-70
2023/06/28 11:54:01;;;;;;;34.47;23.93;;;18.80;96.50;;;;;;5008867;28;20407;-68
2023/06/28 11:56:49;;;;;;;29.63;21.93;;;18.70;96.30;;;;;;4992393;28;20310;-68
2023/06/28 11:59:22;;;;;;;34.50;23.23;;;18.70;96.20;;;;;;5005189;28;20125;-68
2023/06/28 12:01:59;;;;;;;31.47;23.30;;;18.60;96.20;;;;;;5008969;28;20045;-68
2023/06/28 12:04:25;;;;;;;30.80;23.87;;;18.50;96.30;;;;;;4992542;28;20799;-67
2023/06/28 12:06:52;;;;;;;33.93;23.57;;;18.50;96.10;;;;;;4990016;28;20034;-68
2023/06/28 12:09:26;;;;;;;32.67;25.23;;;18.50;96.60;;;;;;5002463;28;20038;-68
2023/06/28 12:11:53;;;;;;;36.03;24.58;;;18.60;97.00;;;;;;5008782;28;20128;-68
2023/06/28 12:14:20;;;;;;;32.43;24.70;;;18.80;97.30;;;;;;4992356;28;20579;-69
2023/06/28 12:16:47;;;;;;;36.40;25.17;;;19.00;96.80;;;;;;4995812;28;20050;-68
2023/06/28 12:19:15;;;;;;;36.37;24.83;;;19.10;96.70;;;;;;5008224;28;20104;-68
2023/06/28 12:21:41;;;;;;;36.53;24.87;;;19.10;96.10;;;;;;5005576;28;20374;-68
2023/06/28 12:24:19;;;;;;;34.63;22.67;;;19.10;96.00;;;;;;5008444;28;20044;-68
2023/06/28 12:26:48;;;;;;;32.13;23.33;;;19.20;95.90;;;;;;5004165;28;20054;-68
2023/06/28 12:29:24;;;;;;;37.30;24.37;;;19.40;96.20;;;;;;4992006;28;20053;-68
2023/06/28 12:31:52;;;;;;;34.57;23.80;;;19.60;95.40;;;;;;5007438;28;20503;-68
2023/06/28 12:34:25;;;;;;;30.60;23.43;;;19.70;94.10;;;;;;4999519;28;20038;-68
2023/06/28 12:37:00;;;;;;;31.90;23.03;;;19.70;93.30;;;;;;5009050;28;20029;-68
2023/06/28 12:39:31;;;;;;;35.60;23.67;;;19.60;93.00;;;;;;4982959;28;20050;-69